Time;durP1;ratioP1;P1;durP2;ratioP2;P2;SDS_P1;SDS_P2;PMS_P1;PMS_P2;Temp;Humidity;BMP_temperature;BMP_pressure;BME280_temperature;BME280_humidity;BME280_pressure;Samples;Min_cycle;Max_cycle;Signal;HPM_P1;HPM_P2
2023/10/30 00:00:52;;;;;;;7.65;1.58;;;12.80;99.90;;;;;;5037818;28;20029;-54
2023/10/30 00:03:17;;;;;;;3.08;0.70;;;12.80;99.90;;;;;;5038017;28;20108;-55
2023/10/30 00:05:43;;;;;;;1.67;0.68;;;12.90;99.90;;;;;;5038030;28;20067;-52
2023/10/30 00:08:09;;;;;;;3.55;0.80;;;12.80;99.90;;;;;;5039025;28;20041;-53
2023/10/30 00:10:35;;;;;;;3.33;1.00;;;12.80;99.90;;;;;;5038448;28;20044;-53
2023/10/30 00:13:01;;;;;;;7.20;1.00;;;12.80;99.90;;;;;;5019618;28;20080;-53
2023/10/30 00:15:26;;;;;;;2.95;0.88;;;12.80;99.90;;;;;;5037017;28;20037;-55
2023/10/30 00:17:52;;;;;;;2.78;0.60;;;12.80;99.90;;;;;;5037746;28;20509;-54
2023/10/30 00:20:18;;;;;;;3.42;0.93;;;12.80;99.90;;;;;;5019736;28;20047;-53
2023/10/30 00:22:45;;;;;;;7.07;0.80;;;12.80;99.90;;;;;;5037723;28;20061;-54
2023/10/30 00:25:10;;;;;;;5.10;0.82;;;12.70;99.90;;;;;;5037047;28;20038;-52
2023/10/30 00:27:36;;;;;;;3.55;0.88;;;12.70;99.90;;;;;;5038970;28;20061;-50
2023/10/30 00:30:02;;;;;;;4.72;1.00;;;12.60;99.90;;;;;;5021274;28;20033;-51
2023/10/30 00:32:28;;;;;;;4.78;0.98;;;12.60;99.90;;;;;;5039124;28;20077;-51
2023/10/30 00:34:54;;;;;;;2.47;0.63;;;12.60;99.90;;;;;;5004710;28;20092;-54
2023/10/30 00:37:19;;;;;;;4.00;1.02;;;12.60;99.90;;;;;;5020642;28;20030;-52
2023/10/30 00:39:45;;;;;;;4.57;0.82;;;12.50;99.90;;;;;;5020230;28;20418;-50
2023/10/30 00:42:10;;;;;;;4.93;0.80;;;12.60;99.90;;;;;;5021524;28;20083;-50
2023/10/30 00:44:38;;;;;;;5.22;1.00;;;12.60;99.90;;;;;;5005455;28;20402;-50
2023/10/30 00:47:04;;;;;;;4.68;0.85;;;12.60;99.90;;;;;;5038603;28;20485;-50
2023/10/30 00:49:31;;;;;;;3.35;0.80;;;12.60;99.90;;;;;;5039261;28;20030;-51
2023/10/30 00:51:57;;;;;;;7.25;0.98;;;12.60;99.90;;;;;;5039958;28;20034;-49
2023/10/30 00:54:23;;;;;;;7.18;1.27;;;12.60;99.90;;;;;;5038974;28;20116;-50
2023/10/30 00:56:48;;;;;;;5.40;1.20;;;12.60;99.90;;;;;;5021463;28;20076;-51
2023/10/30 00:59:14;;;;;;;6.10;0.88;;;12.60;99.90;;;;;;5002740;28;20042;-52
2023/10/30 01:01:40;;;;;;;2.78;1.15;;;12.60;99.90;;;;;;5019224;28;20037;-52
2023/10/30 01:04:06;;;;;;;4.15;0.68;;;12.50;99.90;;;;;;5019742;28;20060;-55
2023/10/30 01:06:32;;;;;;;4.28;0.55;;;12.50;99.90;;;;;;5036555;28;20350;-51
2023/10/30 01:08:58;;;;;;;7.65;1.25;;;12.50;99.90;;;;;;5018858;28;20038;-55
2023/10/30 01:11:23;;;;;;;3.72;0.73;;;12.50;99.90;;;;;;5019121;28;20087;-55
2023/10/30 01:13:49;;;;;;;5.35;1.38;;;12.60;99.90;;;;;;5019246;28;20033;-52
2023/10/30 01:16:15;;;;;;;4.50;0.70;;;12.50;99.90;;;;;;5019097;28;20029;-55
2023/10/30 01:18:41;;;;;;;6.43;1.02;;;12.60;99.90;;;;;;5018997;28;20529;-54
2023/10/30 01:21:11;;;;;;;8.65;0.70;;;12.50;99.90;;;;;;5019067;28;20033;-54
2023/10/30 01:23:37;;;;;;;3.28;0.82;;;12.50;99.90;;;;;;5019317;28;20079;-53
2023/10/30 01:26:03;;;;;;;5.75;0.90;;;12.50;99.90;;;;;;5018258;28;20034;-54
2023/10/30 01:28:29;;;;;;;3.85;1.52;;;12.50;99.90;;;;;;5018968;28;20104;-55
2023/10/30 01:30:54;;;;;;;4.80;0.88;;;12.50;99.90;;;;;;5018451;28;20033;-53
2023/10/30 01:33:20;;;;;;;6.00;1.13;;;12.50;99.90;;;;;;5036497;28;20075;-55
2023/10/30 01:35:46;;;;;;;4.47;0.65;;;12.50;99.90;;;;;;5018532;28;20036;-55
2023/10/30 01:38:11;;;;;;;4.03;1.02;;;12.40;99.90;;;;;;5018617;28;20102;-49
2023/10/30 01:40:45;;;;;;;5.32;1.15;;;12.40;99.90;;;;;;5001788;28;20055;-53
2023/10/30 01:43:10;;;;;;;3.65;0.70;;;12.40;99.90;;;;;;5018630;28;20040;-52
2023/10/30 01:45:36;;;;;;;6.10;0.88;;;12.40;99.90;;;;;;5002542;28;20034;-55
2023/10/30 01:48:02;;;;;;;6.03;0.98;;;12.40;99.90;;;;;;5018404;28;20477;-51
2023/10/30 01:50:28;;;;;;;4.88;0.75;;;12.40;99.90;;;;;;5001846;28;20022;-51
2023/10/30 01:52:54;;;;;;;6.72;1.20;;;12.40;99.90;;;;;;5018594;28;20026;-50
2023/10/30 01:55:20;;;;;;;4.25;0.73;;;12.30;99.90;;;;;;5018174;28;20036;-54
2023/10/30 01:57:46;;;;;;;2.73;0.77;;;12.40;99.90;;;;;;5036983;28;20029;-51
2023/10/30 02:00:12;;;;;;;4.73;0.70;;;12.40;99.90;;;;;;5016921;28;20025;-53
2023/10/30 02:02:43;;;;;;;3.15;0.82;;;12.30;99.90;;;;;;5017709;28;20033;-54
2023/10/30 02:05:09;;;;;;;5.00;1.00;;;12.30;99.90;;;;;;5001251;28;20033;-52
2023/10/30 02:07:36;;;;;;;4.75;0.88;;;12.40;99.90;;;;;;5017648;28;20029;-53
2023/10/30 02:10:04;;;;;;;10.43;1.17;;;12.40;99.90;;;;;;5001320;28;20030;-52
2023/10/30 02:12:32;;;;;;;5.32;0.88;;;12.40;99.90;;;;;;5017773;28;20116;-53
2023/10/30 02:14:58;;;;;;;7.80;0.93;;;12.40;99.90;;;;;;5035993;28;20061;-53
2023/10/30 02:17:24;;;;;;;5.10;0.80;;;12.40;99.90;;;;;;5018109;28;20430;-52
2023/10/30 02:19:51;;;;;;;5.25;0.95;;;12.30;99.90;;;;;;5035675;28;20036;-54
2023/10/30 02:22:16;;;;;;;2.88;0.90;;;12.30;99.90;;;;;;5017477;28;20029;-49
2023/10/30 02:24:42;;;;;;;4.25;1.10;;;12.40;99.90;;;;;;5035391;28;20026;-54
2023/10/30 02:27:09;;;;;;;6.53;1.23;;;12.30;99.90;;;;;;5017774;28;20065;-52
2023/10/30 02:29:35;;;;;;;2.30;0.60;;;12.30;99.90;;;;;;5035862;28;20041;-50
2023/10/30 02:32:00;;;;;;;6.13;0.95;;;12.30;99.90;;;;;;5018151;28;20033;-54
2023/10/30 02:34:26;;;;;;;3.00;0.70;;;12.30;99.90;;;;;;5017959;28;20052;-53
2023/10/30 02:36:54;;;;;;;8.80;1.33;;;12.30;99.90;;;;;;5035500;28;20105;-50
2023/10/30 02:39:19;;;;;;;4.22;0.90;;;12.30;99.90;;;;;;5017790;28;20037;-50
2023/10/30 02:41:45;;;;;;;7.43;1.00;;;12.30;99.90;;;;;;5035577;28;20536;-54
2023/10/30 02:44:11;;;;;;;4.97;0.80;;;12.30;99.90;;;;;;5035699;28;20018;-53
2023/10/30 02:46:37;;;;;;;2.22;0.80;;;12.30;99.90;;;;;;5034695;28;20173;-52
2023/10/30 02:49:02;;;;;;;5.90;1.35;;;12.30;99.90;;;;;;5035508;28;20025;-54
2023/10/30 02:51:28;;;;;;;3.05;1.02;;;12.30;99.90;;;;;;5035651;28;20037;-53
2023/10/30 02:53:54;;;;;;;4.07;1.10;;;12.20;99.90;;;;;;5033922;28;20026;-54
2023/10/30 02:56:19;;;;;;;3.90;0.70;;;12.20;99.90;;;;;;5016370;28;20557;-53
2023/10/30 02:58:45;;;;;;;9.13;1.60;;;12.30;99.90;;;;;;5000030;28;20052;-54
2023/10/30 03:01:10;;;;;;;7.57;1.45;;;12.30;99.90;;;;;;5016521;28;20044;-50
2023/10/30 03:03:36;;;;;;;7.82;0.85;;;12.20;99.90;;;;;;5016423;28;20032;-50
2023/10/30 03:06:02;;;;;;;3.47;0.70;;;12.20;99.90;;;;;;5033524;28;20033;-54
2023/10/30 03:08:29;;;;;;;6.20;1.05;;;12.20;99.90;;;;;;5033636;28;20029;-52
2023/10/30 03:10:55;;;;;;;7.53;1.08;;;12.20;99.90;;;;;;5016911;28;20115;-53
2023/10/30 03:13:20;;;;;;;3.43;1.30;;;12.20;99.90;;;;;;5033984;28;20103;-53
2023/10/30 03:15:47;;;;;;;6.43;1.40;;;12.10;99.90;;;;;;5015917;28;20038;-54
2023/10/30 03:18:14;;;;;;;7.77;1.20;;;12.10;99.90;;;;;;5033965;28;20026;-54
2023/10/30 03:20:39;;;;;;;8.13;1.30;;;12.10;99.90;;;;;;5016054;28;20033;-54
2023/10/30 03:23:05;;;;;;;5.63;1.05;;;12.10;99.90;;;;;;5016739;28;20029;-52
2023/10/30 03:25:30;;;;;;;5.60;0.90;;;12.10;99.90;;;;;;5017141;28;20033;-53
2023/10/30 03:27:57;;;;;;;4.97;1.00;;;12.10;99.90;;;;;;5016871;28;20022;-53
2023/10/30 03:30:23;;;;;;;5.15;0.90;;;12.00;99.90;;;;;;5034733;28;20020;-54
2023/10/30 03:32:48;;;;;;;4.38;1.50;;;11.90;99.90;;;;;;5017341;28;20033;-54
2023/10/30 03:35:14;;;;;;;2.80;0.83;;;11.90;99.90;;;;;;5038166;28;20032;-49
2023/10/30 03:37:39;;;;;;;3.53;0.77;;;11.90;99.90;;;;;;5021095;28;20029;-53
2023/10/30 03:40:06;;;;;;;3.63;0.93;;;11.90;99.90;;;;;;5038512;28;20028;-54
2023/10/30 03:42:32;;;;;;;8.63;1.25;;;11.90;99.90;;;;;;5020485;28;20056;-54
2023/10/30 03:44:58;;;;;;;4.65;1.52;;;11.90;99.90;;;;;;5020357;28;20433;-52
2023/10/30 03:47:24;;;;;;;4.23;1.50;;;12.00;99.90;;;;;;5037973;28;20171;-54
2023/10/30 03:49:49;;;;;;;6.47;1.43;;;11.90;99.90;;;;;;5020178;28;20032;-55
2023/10/30 03:52:15;;;;;;;4.97;1.30;;;12.00;99.90;;;;;;5019888;28;20048;-54
2023/10/30 03:54:40;;;;;;;4.43;1.10;;;12.00;99.90;;;;;;5038190;28;20037;-53
2023/10/30 03:57:09;;;;;;;3.97;1.03;;;12.00;99.90;;;;;;5037774;28;20029;-51
2023/10/30 03:59:35;;;;;;;6.78;1.23;;;11.90;99.90;;;;;;5037357;28;20034;-53
2023/10/30 04:02:01;;;;;;;4.93;1.13;;;11.90;99.90;;;;;;5037601;28;20132;-54
2023/10/30 04:04:27;;;;;;;4.00;0.83;;;11.90;99.90;;;;;;5037840;28;20061;-52
2023/10/30 04:06:53;;;;;;;6.33;1.00;;;12.00;99.90;;;;;;5037746;28;20029;-54
2023/10/30 04:09:18;;;;;;;7.57;0.90;;;12.00;99.90;;;;;;5037932;28;20076;-53
2023/10/30 04:11:47;;;;;;;3.93;1.13;;;12.10;99.90;;;;;;5038050;28;20032;-52
2023/10/30 04:14:13;;;;;;;5.57;0.80;;;12.10;99.90;;;;;;5038024;28;20482;-54
2023/10/30 04:16:39;;;;;;;4.43;0.80;;;12.10;99.90;;;;;;5019778;28;20509;-53
2023/10/30 04:19:05;;;;;;;5.00;0.97;;;12.10;99.90;;;;;;5037338;28;20021;-54
2023/10/30 04:21:30;;;;;;;3.53;0.88;;;12.10;99.90;;;;;;5037220;28;20035;-53
2023/10/30 04:23:57;;;;;;;3.20;1.20;;;12.10;99.90;;;;;;5037534;28;20052;-51
2023/10/30 04:26:23;;;;;;;5.33;1.03;;;12.10;99.90;;;;;;5037355;28;20040;-54
2023/10/30 04:28:48;;;;;;;3.83;0.90;;;12.10;99.90;;;;;;5036877;28;20113;-55
2023/10/30 04:31:14;;;;;;;5.10;0.83;;;12.10;99.90;;;;;;5019395;28;20037;-54
2023/10/30 04:33:40;;;;;;;5.80;1.00;;;12.10;99.90;;;;;;5037000;28;20025;-54
2023/10/30 04:36:06;;;;;;;10.00;1.20;;;12.10;99.90;;;;;;5037382;28;20116;-54
2023/10/30 04:38:32;;;;;;;2.03;0.80;;;12.10;99.90;;;;;;5036960;28;20064;-54
2023/10/30 04:41:02;;;;;;;3.80;0.80;;;12.10;99.90;;;;;;5036932;28;20037;-53
2023/10/30 04:43:27;;;;;;;6.57;1.45;;;12.10;99.90;;;;;;5036919;28;20530;-55
2023/10/30 04:45:53;;;;;;;6.90;1.17;;;12.10;99.90;;;;;;5036704;28;20107;-54
2023/10/30 04:48:19;;;;;;;4.78;0.88;;;12.10;99.90;;;;;;5036247;28;20033;-55
2023/10/30 04:50:44;;;;;;;4.47;0.70;;;12.10;99.90;;;;;;5036595;28;20087;-53
2023/10/30 04:53:10;;;;;;;6.90;0.70;;;12.00;99.90;;;;;;5036673;28;20399;-54
2023/10/30 04:55:36;;;;;;;3.63;0.90;;;12.00;99.90;;;;;;5036306;28;20033;-55
2023/10/30 04:58:01;;;;;;;5.97;1.27;;;12.00;99.90;;;;;;5019080;28;20057;-53
2023/10/30 05:00:27;;;;;;;1.90;0.80;;;12.00;99.90;;;;;;5018619;28;20034;-54
2023/10/30 05:02:53;;;;;;;3.03;0.83;;;11.90;99.90;;;;;;5036010;28;20059;-52
2023/10/30 05:05:18;;;;;;;3.00;0.60;;;11.90;99.90;;;;;;5019543;28;20076;-52
2023/10/30 05:07:44;;;;;;;5.10;1.40;;;11.90;99.90;;;;;;5037252;28;20112;-50
2023/10/30 05:10:11;;;;;;;6.97;1.00;;;11.90;99.90;;;;;;5036881;28;20033;-55
2023/10/30 05:12:37;;;;;;;5.33;0.90;;;11.90;99.90;;;;;;5036943;28;20065;-52
2023/10/30 05:15:03;;;;;;;3.50;0.60;;;11.90;99.90;;;;;;5037017;28;20092;-54
2023/10/30 05:17:29;;;;;;;3.77;0.77;;;11.90;99.90;;;;;;5035961;28;20051;-55
2023/10/30 05:19:54;;;;;;;6.20;1.07;;;11.90;99.90;;;;;;5002360;28;20068;-54
2023/10/30 05:22:20;;;;;;;1.17;0.70;;;11.90;99.90;;;;;;5036684;28;20091;-50
2023/10/30 05:24:45;;;;;;;5.33;1.20;;;11.90;99.90;;;;;;5019105;28;20434;-54
2023/10/30 05:27:11;;;;;;;3.70;0.87;;;11.90;99.90;;;;;;5035843;28;20026;-54
2023/10/30 05:29:37;;;;;;;5.90;1.00;;;11.90;99.90;;;;;;5019245;28;20071;-51
2023/10/30 05:32:06;;;;;;;7.40;1.13;;;12.00;99.90;;;;;;5036324;28;20091;-53
2023/10/30 05:34:32;;;;;;;7.63;1.33;;;11.90;99.90;;;;;;5036551;28;20389;-54
2023/10/30 05:36:58;;;;;;;8.33;1.33;;;12.00;99.90;;;;;;5035538;28;20049;-54
2023/10/30 05:39:24;;;;;;;4.63;1.07;;;12.00;99.90;;;;;;5036178;28;20454;-54
2023/10/30 05:41:50;;;;;;;5.60;0.90;;;12.00;99.90;;;;;;5035830;28;20191;-51
2023/10/30 05:44:17;;;;;;;3.47;1.03;;;12.00;99.90;;;;;;5036001;28;20049;-54
2023/10/30 05:46:42;;;;;;;5.20;1.10;;;12.00;99.90;;;;;;5036053;28;20026;-50
2023/10/30 05:49:08;;;;;;;6.57;1.57;;;11.90;99.90;;;;;;5036658;28;20032;-51
2023/10/30 05:51:34;;;;;;;6.27;1.70;;;11.90;99.90;;;;;;5019098;28;20033;-49
2023/10/30 05:53:59;;;;;;;7.50;2.60;;;11.90;99.90;;;;;;5037362;28;20026;-53
2023/10/30 05:56:25;;;;;;;3.73;0.83;;;11.90;99.90;;;;;;5035707;28;20508;-51
2023/10/30 05:58:50;;;;;;;4.40;1.10;;;11.90;99.90;;;;;;5036674;28;20079;-52
2023/10/30 06:01:16;;;;;;;3.43;1.03;;;11.90;99.90;;;;;;5037516;28;20568;-50
2023/10/30 06:03:42;;;;;;;5.30;0.83;;;11.80;99.90;;;;;;5037015;28;20025;-52
2023/10/30 06:06:08;;;;;;;6.90;1.10;;;11.80;99.90;;;;;;5036874;28;20075;-51
2023/10/30 06:08:34;;;;;;;4.60;1.00;;;11.80;99.90;;;;;;5018958;28;20025;-51
2023/10/30 06:10:59;;;;;;;5.33;1.13;;;11.80;99.90;;;;;;5036569;28;20452;-50
2023/10/30 06:13:25;;;;;;;4.97;1.40;;;11.70;99.90;;;;;;5037001;28;20029;-49
2023/10/30 06:15:53;;;;;;;6.10;1.10;;;11.70;99.90;;;;;;5018671;28;20614;-51
2023/10/30 06:18:18;;;;;;;2.37;0.90;;;11.60;99.90;;;;;;5019322;28;20033;-51
2023/10/30 06:20:44;;;;;;;3.20;1.50;;;11.60;99.90;;;;;;5036312;28;20041;-50
2023/10/30 06:23:10;;;;;;;8.47;1.40;;;11.60;99.90;;;;;;5002475;28;20088;-51
2023/10/30 06:25:39;;;;;;;3.10;1.10;;;11.60;99.90;;;;;;5036365;28;20025;-51
2023/10/30 06:28:06;;;;;;;6.88;1.20;;;11.70;99.90;;;;;;5036919;28;20030;-50
2023/10/30 06:30:32;;;;;;;6.23;1.20;;;11.70;99.90;;;;;;5018788;28;20041;-52
2023/10/30 06:32:58;;;;;;;7.87;1.07;;;11.70;99.90;;;;;;5019015;28;20021;-49
2023/10/30 06:35:23;;;;;;;5.60;1.20;;;11.70;99.90;;;;;;5036358;28;20029;-52
2023/10/30 06:37:50;;;;;;;4.50;0.90;;;11.80;99.90;;;;;;5018328;28;20034;-51
2023/10/30 06:40:15;;;;;;;5.00;1.50;;;11.80;99.90;;;;;;5036326;28;20026;-53
2023/10/30 06:42:41;;;;;;;8.80;1.20;;;11.80;99.90;;;;;;5036814;28;20467;-52
2023/10/30 06:45:07;;;;;;;4.73;1.00;;;11.80;99.90;;;;;;5036498;28;20053;-49
2023/10/30 06:47:33;;;;;;;6.13;1.40;;;11.80;99.90;;;;;;5018702;28;20038;-51
2023/10/30 06:49:59;;;;;;;4.47;0.90;;;11.90;99.90;;;;;;5036317;28;20039;-52
2023/10/30 06:52:24;;;;;;;7.87;1.33;;;11.90;99.90;;;;;;5019068;28;20052;-49
2023/10/30 06:54:50;;;;;;;7.77;1.20;;;11.90;99.90;;;;;;5036474;28;20090;-54
2023/10/30 06:57:15;;;;;;;5.57;1.50;;;11.90;99.90;;;;;;5035759;28;20030;-52
2023/10/30 06:59:41;;;;;;;4.67;1.30;;;11.90;99.90;;;;;;5018275;28;20558;-49
2023/10/30 07:02:07;;;;;;;7.13;1.70;;;11.90;99.90;;;;;;5036618;28;20254;-49
2023/10/30 07:04:32;;;;;;;4.80;1.37;;;12.00;99.90;;;;;;5036618;28;20478;-49
2023/10/30 07:06:58;;;;;;;4.30;1.07;;;12.00;99.90;;;;;;5037423;28;20083;-49
2023/10/30 07:09:23;;;;;;;4.20;1.60;;;11.90;99.90;;;;;;5040402;28;20100;-50
2023/10/30 07:11:49;;;;;;;6.67;1.50;;;12.00;99.90;;;;;;5039993;28;20037;-51
2023/10/30 07:14:15;;;;;;;8.03;2.00;;;11.90;99.90;;;;;;5040401;28;20037;-50
2023/10/30 07:16:40;;;;;;;7.17;1.63;;;11.90;99.90;;;;;;5038870;28;20041;-50
2023/10/30 07:19:06;;;;;;;5.33;1.30;;;11.90;99.90;;;;;;5038673;28;20029;-54
2023/10/30 07:21:32;;;;;;;6.10;1.20;;;11.80;99.90;;;;;;5036517;28;20441;-54
2023/10/30 07:23:58;;;;;;;8.27;1.43;;;11.90;99.90;;;;;;5038394;28;20029;-53
2023/10/30 07:26:24;;;;;;;6.40;1.53;;;11.90;99.90;;;;;;5020948;28;20026;-54
2023/10/30 07:28:51;;;;;;;5.63;1.77;;;11.90;99.90;;;;;;5039037;28;20037;-54
2023/10/30 07:31:18;;;;;;;7.80;1.77;;;11.90;99.90;;;;;;5039050;28;20037;-53
2023/10/30 07:33:44;;;;;;;8.73;1.43;;;11.90;99.90;;;;;;5038798;28;20042;-53
2023/10/30 07:36:10;;;;;;;4.67;1.10;;;11.90;99.90;;;;;;5021569;28;20044;-50
2023/10/30 07:38:36;;;;;;;5.38;1.55;;;11.90;99.90;;;;;;5039071;28;20049;-53
2023/10/30 07:41:02;;;;;;;5.57;1.43;;;12.00;99.90;;;;;;5038544;28;20532;-53
2023/10/30 07:43:28;;;;;;;5.13;1.00;;;12.10;99.90;;;;;;5038497;28;20025;-51
2023/10/30 07:45:54;;;;;;;4.03;1.37;;;12.10;99.90;;;;;;5021011;28;20029;-53
2023/10/30 07:48:20;;;;;;;7.28;1.65;;;12.20;99.90;;;;;;5038575;28;20091;-50
2023/10/30 07:50:47;;;;;;;4.93;1.30;;;12.20;99.90;;;;;;5038560;28;20026;-50
2023/10/30 07:53:14;;;;;;;4.70;1.30;;;12.30;99.90;;;;;;5038894;28;20047;-55
2023/10/30 07:55:40;;;;;;;8.80;1.77;;;12.40;99.90;;;;;;5020309;28;20501;-52
2023/10/30 07:58:06;;;;;;;4.20;1.47;;;12.40;99.90;;;;;;5038403;28;20030;-54
2023/10/30 08:00:32;;;;;;;5.75;1.50;;;12.50;99.90;;;;;;5038394;28;20025;-52
2023/10/30 08:02:59;;;;;;;4.20;1.37;;;12.50;99.90;;;;;;5037913;28;20112;-52
2023/10/30 08:05:24;;;;;;;4.75;1.20;;;12.60;99.90;;;;;;5020394;28;20029;-52
2023/10/30 08:07:50;;;;;;;3.22;1.23;;;12.60;99.90;;;;;;5020310;28;20030;-52
2023/10/30 08:10:16;;;;;;;7.40;1.48;;;12.70;99.90;;;;;;5037725;28;20034;-53
2023/10/30 08:12:41;;;;;;;4.05;1.30;;;12.80;99.90;;;;;;5037755;28;20034;-54
2023/10/30 08:15:07;;;;;;;6.90;2.17;;;12.90;99.90;;;;;;5037985;28;20030;-52
2023/10/30 08:17:33;;;;;;;5.22;1.15;;;13.00;99.90;;;;;;5037961;28;20034;-53
2023/10/30 08:19:59;;;;;;;7.78;1.40;;;13.10;99.90;;;;;;5037026;28;20052;-53
2023/10/30 08:22:24;;;;;;;5.43;1.35;;;13.30;99.90;;;;;;5037871;28;20029;-55
2023/10/30 08:24:51;;;;;;;5.65;2.35;;;13.30;99.90;;;;;;5038362;28;20025;-53
2023/10/30 08:27:17;;;;;;;2.72;0.80;;;13.30;99.90;;;;;;5037848;28;20052;-51
2023/10/30 08:29:43;;;;;;;5.22;0.88;;;13.40;99.90;;;;;;5038306;28;20025;-55
2023/10/30 08:32:08;;;;;;;3.22;1.15;;;13.50;99.90;;;;;;5037715;28;20064;-50
2023/10/30 08:34:35;;;;;;;4.53;1.35;;;13.50;99.90;;;;;;5038347;28;20026;-54
2023/10/30 08:37:01;;;;;;;7.28;1.00;;;13.60;99.90;;;;;;5020400;28;20044;-51
2023/10/30 08:39:26;;;;;;;5.85;1.20;;;13.60;99.90;;;;;;5037676;28;20033;-53
2023/10/30 08:41:52;;;;;;;3.42;1.10;;;13.60;99.90;;;;;;5038010;28;20040;-55
2023/10/30 08:44:17;;;;;;;4.32;1.00;;;13.60;99.90;;;;;;5038661;28;20034;-53
2023/10/30 08:46:43;;;;;;;4.43;0.85;;;13.70;99.90;;;;;;5037844;28;20028;-51
2023/10/30 08:49:09;;;;;;;1.90;0.80;;;13.80;99.90;;;;;;5019890;28;20033;-53
2023/10/30 08:51:41;;;;;;;4.07;1.10;;;13.80;99.90;;;;;;5037346;28;20100;-53
2023/10/30 08:54:07;;;;;;;5.85;1.20;;;13.80;99.90;;;;;;5037434;28;20037;-54
2023/10/30 08:56:33;;;;;;;5.85;1.25;;;13.80;99.90;;;;;;5036936;28;20085;-53
2023/10/30 08:58:58;;;;;;;5.95;1.00;;;13.70;99.90;;;;;;5037200;28;20025;-53
2023/10/30 09:01:24;;;;;;;4.03;1.40;;;13.80;99.90;;;;;;5037267;28;20030;-51
2023/10/30 09:03:50;;;;;;;6.30;1.00;;;13.80;99.90;;;;;;5037611;28;20410;-53
2023/10/30 09:06:15;;;;;;;2.58;0.98;;;13.90;99.90;;;;;;5037322;28;20021;-53
2023/10/30 09:08:41;;;;;;;7.25;1.33;;;13.90;99.90;;;;;;5036483;28;20091;-52
2023/10/30 09:11:07;;;;;;;5.32;1.10;;;14.00;99.90;;;;;;5019694;28;20451;-55
2023/10/30 09:13:32;;;;;;;3.30;1.00;;;14.00;99.90;;;;;;5036946;28;20033;-51
2023/10/30 09:15:58;;;;;;;3.42;0.98;;;14.00;99.90;;;;;;5037177;28;20052;-53
2023/10/30 09:18:24;;;;;;;6.00;1.25;;;14.10;99.90;;;;;;5037214;28;20108;-51
2023/10/30 09:20:50;;;;;;;9.35;1.10;;;14.20;99.90;;;;;;5037379;28;20454;-53
2023/10/30 09:23:16;;;;;;;6.03;1.38;;;14.20;99.90;;;;;;5036739;28;20025;-53
2023/10/30 09:25:42;;;;;;;1.92;0.82;;;14.30;99.90;;;;;;5036030;28;20025;-54
2023/10/30 09:28:07;;;;;;;5.50;0.93;;;14.30;99.90;;;;;;5036402;28;20393;-53
2023/10/30 09:30:33;;;;;;;3.08;1.08;;;14.30;99.90;;;;;;5035336;28;20026;-53
2023/10/30 09:32:59;;;;;;;2.15;0.80;;;14.30;99.90;;;;;;5019070;28;20030;-51
2023/10/30 09:35:29;;;;;;;5.00;1.00;;;14.30;99.90;;;;;;5036928;28;20093;-51
2023/10/30 09:37:56;;;;;;;1.50;0.90;;;14.40;99.90;;;;;;5036598;28;20049;-49
2023/10/30 09:40:26;;;;;;;3.00;0.73;;;14.40;99.90;;;;;;5036320;28;20108;-51
2023/10/30 09:42:53;;;;;;;6.85;1.10;;;14.40;99.90;;;;;;5036638;28;20052;-53
2023/10/30 09:45:23;;;;;;;1.92;1.10;;;14.50;99.90;;;;;;5036234;28;20037;-54
2023/10/30 09:47:54;;;;;;;2.67;1.00;;;14.50;99.90;;;;;;5036584;28;20033;-53
2023/10/30 09:50:20;;;;;;;1.95;0.90;;;14.50;99.90;;;;;;5036716;28;20034;-52
2023/10/30 09:52:52;;;;;;;2.35;0.85;;;14.50;99.90;;;;;;5036341;28;20025;-52
2023/10/30 09:55:18;;;;;;;3.47;1.10;;;14.60;99.90;;;;;;5018351;28;20037;-55
2023/10/30 09:57:47;;;;;;;4.40;1.08;;;14.60;99.90;;;;;;5035935;28;20030;-54
2023/10/30 10:00:14;;;;;;;2.38;1.10;;;14.60;99.90;;;;;;5017127;28;20413;-53
2023/10/30 10:02:41;;;;;;;4.00;0.95;;;14.70;99.90;;;;;;5035824;28;20030;-54
2023/10/30 10:05:08;;;;;;;3.40;0.98;;;14.90;99.90;;;;;;5035815;28;20116;-51
2023/10/30 10:07:34;;;;;;;5.30;0.98;;;14.90;99.90;;;;;;5035899;28;20029;-53
2023/10/30 10:10:02;;;;;;;3.80;1.00;;;15.00;99.90;;;;;;5035607;28;20093;-55
2023/10/30 10:12:31;;;;;;;2.08;0.80;;;15.10;99.90;;;;;;5035583;28;20037;-50
2023/10/30 10:14:57;;;;;;;6.07;1.55;;;15.10;99.90;;;;;;5035965;28;20056;-52
2023/10/30 10:17:23;;;;;;;3.60;0.90;;;15.20;99.90;;;;;;5035700;28;20033;-53
2023/10/30 10:19:49;;;;;;;4.30;0.90;;;15.20;99.90;;;;;;5035554;28;20095;-50
2023/10/30 10:22:31;;;;;;;5.15;0.90;;;15.30;99.90;;;;;;5035924;28;20120;-53
2023/10/30 10:24:57;;;;;;;2.45;0.90;;;15.40;99.90;;;;;;5035380;28;20036;-52
2023/10/30 10:27:25;;;;;;;2.13;1.02;;;15.40;99.90;;;;;;5035828;28;20060;-51
2023/10/30 10:29:56;;;;;;;4.03;1.15;;;15.50;99.90;;;;;;5035721;28;20033;-53
2023/10/30 10:32:28;;;;;;;1.80;0.80;;;15.50;99.90;;;;;;5035389;28;20057;-54
2023/10/30 10:35:05;;;;;;;8.07;2.88;;;15.50;99.90;;;;;;5035776;28;20025;-50
2023/10/30 10:37:34;;;;;;;5.07;1.90;;;15.60;99.90;;;;;;5035858;28;20413;-52
2023/10/30 10:40:01;;;;;;;2.72;0.95;;;15.80;99.90;;;;;;5018052;28;20183;-53
2023/10/30 10:42:30;;;;;;;3.88;1.25;;;15.90;99.90;;;;;;5020095;28;20040;-53
2023/10/30 10:44:56;;;;;;;3.08;1.10;;;16.00;99.90;;;;;;5039807;28;20033;-52
2023/10/30 10:47:23;;;;;;;4.90;1.05;;;16.10;99.90;;;;;;5039281;28;20021;-52
2023/10/30 10:49:50;;;;;;;3.75;1.00;;;16.30;99.90;;;;;;5021317;28;20040;-51
2023/10/30 10:52:19;;;;;;;2.55;0.90;;;16.40;99.90;;;;;;5039571;28;20039;-53
2023/10/30 10:55:05;;;;;;;1.85;0.88;;;16.50;99.90;;;;;;5039076;28;20034;-54
2023/10/30 10:58:22;;;;;;;3.53;1.27;;;16.50;99.90;;;;;;5021796;28;20548;-53
2023/10/30 11:00:50;;;;;;;2.77;1.07;;;16.80;99.90;;;;;;4991398;28;20118;-54
2023/10/30 11:03:17;;;;;;;1.80;0.80;;;16.90;99.90;;;;;;5038894;28;20021;-54
2023/10/30 11:05:44;;;;;;;3.65;1.10;;;17.30;99.90;;;;;;5039176;28;20035;-50
2023/10/30 11:08:11;;;;;;;3.75;1.30;;;18.00;99.90;;;;;;5038995;28;20109;-51
2023/10/30 11:11:02;;;;;;;2.75;0.70;;;18.50;99.90;;;;;;5005288;28;20029;-54
2023/10/30 11:13:40;;;;;;;3.03;0.85;;;18.60;99.90;;;;;;5032286;28;20076;-52
2023/10/30 11:16:15;;;;;;;3.17;1.00;;;18.40;99.90;;;;;;5021025;28;20041;-50
2023/10/30 11:18:41;;;;;;;2.78;0.73;;;17.90;99.90;;;;;;5021494;28;20029;-55
2023/10/30 11:21:18;;;;;;;2.53;0.73;;;17.60;99.90;;;;;;5039088;28;20025;-55
2023/10/30 11:23:49;;;;;;;2.00;0.90;;;17.30;99.90;;;;;;5038573;28;20041;-55
2023/10/30 11:26:44;;;;;;;1.95;0.70;;;16.90;99.90;;;;;;5038802;28;20022;-50
2023/10/30 11:29:22;;;;;;;1.63;0.60;;;16.50;99.90;;;;;;5015775;28;20034;-54
2023/10/30 11:32:04;;;;;;;2.28;0.90;;;16.20;99.90;;;;;;5039175;28;20193;-53
2023/10/30 11:34:34;;;;;;;3.33;0.90;;;16.00;99.90;;;;;;5038979;28;20116;-54
2023/10/30 11:37:08;;;;;;;2.67;0.90;;;15.90;99.90;;;;;;5004768;28;20053;-54
2023/10/30 11:39:36;;;;;;;4.32;1.30;;;15.90;99.90;;;;;;5038547;28;20037;-51
2023/10/30 11:42:03;;;;;;;3.30;0.88;;;16.00;99.90;;;;;;5038523;28;20084;-50
2023/10/30 11:44:30;;;;;;;2.88;0.57;;;16.00;99.90;;;;;;5038370;28;20030;-54
2023/10/30 11:46:56;;;;;;;3.38;1.42;;;15.90;99.90;;;;;;5038530;28;20053;-54
2023/10/30 11:49:29;;;;;;;2.58;0.90;;;15.90;99.90;;;;;;5020684;28;20038;-54
2023/10/30 11:51:56;;;;;;;3.45;0.82;;;15.80;99.90;;;;;;5038890;28;20122;-50
2023/10/30 11:54:32;;;;;;;2.30;1.00;;;15.70;99.90;;;;;;5019875;28;20038;-54
2023/10/30 11:57:00;;;;;;;1.85;0.73;;;15.70;99.90;;;;;;5020896;28;20402;-51
2023/10/30 11:59:29;;;;;;;2.80;0.70;;;15.60;99.90;;;;;;5038000;28;20058;-51
2023/10/30 12:01:59;;;;;;;3.08;1.05;;;15.60;99.90;;;;;;5038099;28;20478;-54
2023/10/30 12:04:26;;;;;;;2.78;0.85;;;15.60;99.90;;;;;;5038573;28;20029;-53
2023/10/30 12:06:52;;;;;;;2.08;0.80;;;15.70;99.90;;;;;;5038272;28;20284;-54
2023/10/30 12:09:18;;;;;;;4.65;1.30;;;15.60;99.90;;;;;;5038210;28;20033;-54
2023/10/30 12:11:44;;;;;;;2.10;0.93;;;15.60;99.90;;;;;;5038191;28;20029;-55
2023/10/30 12:14:15;;;;;;;2.17;0.93;;;15.70;99.90;;;;;;5038063;28;20108;-55
2023/10/30 12:16:51;;;;;;;5.07;1.38;;;15.80;99.90;;;;;;5038164;28;20029;-55
2023/10/30 12:19:23;;;;;;;1.65;0.70;;;15.90;99.90;;;;;;5019683;28;20033;-52
2023/10/30 12:21:50;;;;;;;4.70;1.42;;;15.90;99.90;;;;;;5037721;28;20513;-52
2023/10/30 12:24:16;;;;;;;3.97;1.30;;;15.80;99.90;;;;;;5037851;28;20445;-49
2023/10/30 12:26:43;;;;;;;1.15;0.80;;;15.90;99.90;;;;;;5037538;28;20386;-50
2023/10/30 12:29:09;;;;;;;2.60;1.13;;;15.90;99.90;;;;;;5037679;28;20041;-49
2023/10/30 12:31:35;;;;;;;1.58;0.90;;;15.90;99.90;;;;;;5038254;28;20033;-52
2023/10/30 12:34:18;;;;;;;2.45;0.80;;;15.90;99.90;;;;;;5038166;28;20075;-55
2023/10/30 12:36:44;;;;;;;2.95;1.38;;;15.80;99.90;;;;;;5037331;28;20049;-54
2023/10/30 12:39:17;;;;;;;0.90;0.68;;;15.70;99.90;;;;;;5037130;28;20029;-52
2023/10/30 12:41:44;;;;;;;1.40;0.80;;;15.60;99.90;;;;;;5020434;28;20029;-51
2023/10/30 12:44:10;;;;;;;3.25;1.00;;;15.50;99.90;;;;;;5037979;28;20040;-51
2023/10/30 12:46:36;;;;;;;1.38;0.85;;;15.40;99.90;;;;;;5037592;28;20037;-50